Panora, IA

10:36 AM CDT on October 24, 2014 (GMT -0500)
Boone Municipal | Change Station
CLOSE
Current Station
Airport
Location: Boone,
Elevation: 1161 ft
Nearby Weather Stations
Active Advisory: Special Statement Active Notice: Public Information Statement

Elev 1161 ft 42.05 °N, 93.85 °W | Updated 21 minutes ago

Overcast
Overcast
59 °F
Feels Like 59 °F
N
10
Wind Variable Wind from South
Gusts 16 mph

Today
High -- | Low -- °F
--% Chance of Precip.
Yesterday
High -- | Low -- °F
Precip. -- in
7:40 AM 6:22 PM
New Moon, 1% visible
Pressure 29.94 in
Visibility 0.2 miles
Clouds Overcast 300 ft
Dew Point 59 °F
Humidity 100%
Rainfall 0.00 in
Snow Depth Not available.
UV 1 out of 12
Pollen 2.20 out of 12
Air Quality Not available.
Flu Activity Sporadic
METAR KBNW 241515Z AUTO 19009G14KT 1/4SM FG OVC003 15/15 A2994 RMK AO2

More Conditions Fewer Conditions

Pressure 29.94 in
Visibility 0.2 miles
Clouds Overcast 300 ft
Dew Point 59 °F
Humidity 100%
Rainfall 0.00 in
Snow Depth Not available.
UV 1 out of 12
Pollen 2.20 out of 12
Air Quality Not available.
Flu Activity Sporadic
METAR KBNW 241515Z AUTO 19009G14KT 1/4SM FG OVC003 15/15 A2994 RMK AO2

More Conditions Fewer Conditions

10-Day Weather Forecast

Almanac

Astronomy

Oct. 24, 2014 Rise Set
Actual Time 7:40 AM CDT 6:22 PM CDT
Civil Twilight 7:11 AM CDT 6:51 PM CDT
Nautical Twilight 6:39 AM CDT 7:23 PM CDT
Astronomical Twilight 6:06 AM CDT 7:55 PM CDT
Moon 8:20 AM CDT 7:02 PM CDT
Length of Visible Light 11h 39m
Length of Day
10h 42m
Tomorrow will be 2m 36s shorter.
New Moon, 1% of the Moon is Illuminated
Today
New Moon
Oct 30
First Quarter
Nov 6
Full
Nov 14
Last Quarter
Nov 22
New

Today's Extremes

State Highs State Lows

Community

WunderPhotos

Upload Photos

1,764,589 photos uploaded!

WunderBlogs® & News

Nearby

Snow Depth

Station Depth Elevation
No new snow has been reported.

Earthquake Activity

City Distance Mag. Time & Date
No recent earthquake activity has been reported nearby.
Minimum magnitude displayed is 2.5.

Coastal Water Temperatures

Place Temperature
No Stations Reporting

Nearby Weather Stations